sensor_id;sensor_type;location;lat;lon;timestamp;P1;durP1;ratioP1;P2;durP2;ratioP2
11203;SDS011;5659;49.408;11.116;2024-02-26T00:01:37;11.80;;;7.40;;
11203;SDS011;5659;49.408;11.116;2024-02-26T00:04:03;13.33;;;7.57;;
11203;SDS011;5659;49.408;11.116;2024-02-26T00:06:29;13.17;;;6.60;;
11203;SDS011;5659;49.408;11.116;2024-02-26T00:08:55;12.63;;;7.43;;
11203;SDS011;5659;49.408;11.116;2024-02-26T00:11:21;10.53;;;7.20;;
11203;SDS011;5659;49.408;11.116;2024-02-26T00:13:46;12.77;;;7.73;;
11203;SDS011;5659;49.408;11.116;2024-02-26T00:16:12;10.77;;;7.50;;
11203;SDS011;5659;49.408;11.116;2024-02-26T00:18:37;13.80;;;8.00;;
11203;SDS011;5659;49.408;11.116;2024-02-26T00:21:03;13.90;;;7.37;;
11203;SDS011;5659;49.408;11.116;2024-02-26T00:23:29;11.80;;;7.57;;
11203;SDS011;5659;49.408;11.116;2024-02-26T00:25:54;13.90;;;7.80;;
11203;SDS011;5659;49.408;11.116;2024-02-26T00:28:20;10.60;;;7.20;;
11203;SDS011;5659;49.408;11.116;2024-02-26T00:30:46;12.17;;;7.20;;
11203;SDS011;5659;49.408;11.116;2024-02-26T00:33:12;9.23;;;7.07;;
11203;SDS011;5659;49.408;11.116;2024-02-26T00:35:39;10.63;;;7.60;;
11203;SDS011;5659;49.408;11.116;2024-02-26T00:38:04;11.20;;;7.50;;
11203;SDS011;5659;49.408;11.116;2024-02-26T00:40:31;10.13;;;7.43;;
11203;SDS011;5659;49.408;11.116;2024-02-26T00:42:56;10.90;;;7.43;;
11203;SDS011;5659;49.408;11.116;2024-02-26T00:45:22;11.83;;;7.20;;
11203;SDS011;5659;49.408;11.116;2024-02-26T00:47:47;10.17;;;6.93;;
11203;SDS011;5659;49.408;11.116;2024-02-26T00:50:14;16.33;;;8.27;;
11203;SDS011;5659;49.408;11.116;2024-02-26T00:52:40;13.80;;;7.40;;
11203;SDS011;5659;49.408;11.116;2024-02-26T00:55:06;10.00;;;7.23;;
11203;SDS011;5659;49.408;11.116;2024-02-26T00:57:32;10.10;;;7.27;;
11203;SDS011;5659;49.408;11.116;2024-02-26T00:59:57;10.30;;;7.40;;
11203;SDS011;5659;49.408;11.116;2024-02-26T01:02:24;15.17;;;7.43;;
11203;SDS011;5659;49.408;11.116;2024-02-26T01:04:49;15.53;;;8.53;;
11203;SDS011;5659;49.408;11.116;2024-02-26T01:07:15;10.73;;;8.10;;
11203;SDS011;5659;49.408;11.116;2024-02-26T01:09:41;12.57;;;7.80;;
11203;SDS011;5659;49.408;11.116;2024-02-26T01:12:07;12.50;;;7.50;;
11203;SDS011;5659;49.408;11.116;2024-02-26T01:14:32;13.23;;;7.80;;
11203;SDS011;5659;49.408;11.116;2024-02-26T01:16:58;14.37;;;8.23;;
11203;SDS011;5659;49.408;11.116;2024-02-26T01:19:24;12.40;;;7.40;;
11203;SDS011;5659;49.408;11.116;2024-02-26T01:21:49;14.53;;;8.27;;
11203;SDS011;5659;49.408;11.116;2024-02-26T01:24:15;11.77;;;7.73;;
11203;SDS011;5659;49.408;11.116;2024-02-26T01:26:40;13.50;;;8.90;;
11203;SDS011;5659;49.408;11.116;2024-02-26T01:29:06;13.10;;;8.60;;
11203;SDS011;5659;49.408;11.116;2024-02-26T01:31:32;17.40;;;9.17;;
11203;SDS011;5659;49.408;11.116;2024-02-26T01:33:57;13.80;;;9.37;;
11203;SDS011;5659;49.408;11.116;2024-02-26T01:36:23;16.30;;;9.47;;
11203;SDS011;5659;49.408;11.116;2024-02-26T01:38:48;14.47;;;9.37;;
11203;SDS011;5659;49.408;11.116;2024-02-26T01:41:14;17.87;;;9.67;;
11203;SDS011;5659;49.408;11.116;2024-02-26T01:43:40;17.53;;;10.70;;
11203;SDS011;5659;49.408;11.116;2024-02-26T01:46:05;15.30;;;9.90;;
11203;SDS011;5659;49.408;11.116;2024-02-26T01:48:34;15.90;;;9.70;;
11203;SDS011;5659;49.408;11.116;2024-02-26T01:50:59;17.27;;;10.40;;
11203;SDS011;5659;49.408;11.116;2024-02-26T01:53:25;19.47;;;10.17;;
11203;SDS011;5659;49.408;11.116;2024-02-26T01:55:50;16.70;;;10.37;;
11203;SDS011;5659;49.408;11.116;2024-02-26T01:58:16;17.40;;;10.30;;
11203;SDS011;5659;49.408;11.116;2024-02-26T02:00:42;19.07;;;10.07;;
11203;SDS011;5659;49.408;11.116;2024-02-26T02:03:08;14.60;;;9.57;;
11203;SDS011;5659;49.408;11.116;2024-02-26T02:05:33;15.27;;;10.03;;
11203;SDS011;5659;49.408;11.116;2024-02-26T02:08:06;20.60;;;10.83;;
11203;SDS011;5659;49.408;11.116;2024-02-26T02:10:32;25.27;;;12.20;;
11203;SDS011;5659;49.408;11.116;2024-02-26T02:12:58;19.60;;;12.03;;
11203;SDS011;5659;49.408;11.116;2024-02-26T02:15:24;29.33;;;14.90;;
11203;SDS011;5659;49.408;11.116;2024-02-26T02:17:50;31.47;;;15.70;;
11203;SDS011;5659;49.408;11.116;2024-02-26T02:20:16;31.60;;;17.37;;
11203;SDS011;5659;49.408;11.116;2024-02-26T02:22:45;34.23;;;17.23;;
11203;SDS011;5659;49.408;11.116;2024-02-26T02:25:11;36.17;;;18.87;;
11203;SDS011;5659;49.408;11.116;2024-02-26T02:27:37;34.50;;;17.73;;
11203;SDS011;5659;49.408;11.116;2024-02-26T02:30:03;34.60;;;17.73;;
11203;SDS011;5659;49.408;11.116;2024-02-26T02:32:29;39.80;;;18.37;;
11203;SDS011;5659;49.408;11.116;2024-02-26T02:34:56;36.97;;;18.70;;
11203;SDS011;5659;49.408;11.116;2024-02-26T02:37:22;44.20;;;18.83;;
11203;SDS011;5659;49.408;11.116;2024-02-26T02:39:47;34.77;;;17.67;;
11203;SDS011;5659;49.408;11.116;2024-02-26T02:42:13;31.73;;;16.93;;
11203;SDS011;5659;49.408;11.116;2024-02-26T02:44:38;40.10;;;18.37;;
11203;SDS011;5659;49.408;11.116;2024-02-26T02:47:04;33.97;;;17.07;;
11203;SDS011;5659;49.408;11.116;2024-02-26T02:49:30;31.83;;;16.97;;
11203;SDS011;5659;49.408;11.116;2024-02-26T02:51:55;38.97;;;18.53;;
11203;SDS011;5659;49.408;11.116;2024-02-26T02:54:22;34.67;;;18.30;;
11203;SDS011;5659;49.408;11.116;2024-02-26T02:56:48;35.23;;;17.83;;
11203;SDS011;5659;49.408;11.116;2024-02-26T02:59:13;36.00;;;17.33;;
11203;SDS011;5659;49.408;11.116;2024-02-26T03:01:39;30.27;;;17.73;;
11203;SDS011;5659;49.408;11.116;2024-02-26T03:04:05;35.83;;;17.23;;
11203;SDS011;5659;49.408;11.116;2024-02-26T03:06:30;32.97;;;17.23;;
11203;SDS011;5659;49.408;11.116;2024-02-26T03:08:56;31.30;;;17.20;;
11203;SDS011;5659;49.408;11.116;2024-02-26T03:11:21;34.40;;;16.23;;
11203;SDS011;5659;49.408;11.116;2024-02-26T03:13:47;36.73;;;17.10;;
11203;SDS011;5659;49.408;11.116;2024-02-26T03:16:13;36.47;;;17.37;;
11203;SDS011;5659;49.408;11.116;2024-02-26T03:18:39;28.87;;;16.13;;
11203;SDS011;5659;49.408;11.116;2024-02-26T03:21:05;35.73;;;16.87;;
11203;SDS011;5659;49.408;11.116;2024-02-26T03:23:31;36.70;;;16.33;;
11203;SDS011;5659;49.408;11.116;2024-02-26T03:26:01;31.93;;;17.37;;
11203;SDS011;5659;49.408;11.116;2024-02-26T03:28:29;32.20;;;15.80;;
11203;SDS011;5659;49.408;11.116;2024-02-26T03:30:58;30.77;;;17.23;;
11203;SDS011;5659;49.408;11.116;2024-02-26T03:33:24;30.77;;;15.93;;
11203;SDS011;5659;49.408;11.116;2024-02-26T03:35:49;34.07;;;16.30;;
11203;SDS011;5659;49.408;11.116;2024-02-26T03:38:15;33.40;;;16.33;;
11203;SDS011;5659;49.408;11.116;2024-02-26T03:40:40;28.13;;;15.87;;
11203;SDS011;5659;49.408;11.116;2024-02-26T03:43:06;40.73;;;15.87;;
11203;SDS011;5659;49.408;11.116;2024-02-26T03:45:32;29.17;;;16.67;;
11203;SDS011;5659;49.408;11.116;2024-02-26T03:47:58;34.43;;;15.97;;
11203;SDS011;5659;49.408;11.116;2024-02-26T03:50:24;31.70;;;16.70;;
11203;SDS011;5659;49.408;11.116;2024-02-26T03:52:49;28.77;;;15.70;;
11203;SDS011;5659;49.408;11.116;2024-02-26T03:55:15;28.40;;;15.10;;
11203;SDS011;5659;49.408;11.116;2024-02-26T03:57:45;27.27;;;15.13;;
11203;SDS011;5659;49.408;11.116;2024-02-26T04:00:11;31.07;;;16.47;;
11203;SDS011;5659;49.408;11.116;2024-02-26T04:02:37;32.93;;;16.03;;
11203;SDS011;5659;49.408;11.116;2024-02-26T04:05:03;25.97;;;15.03;;
11203;SDS011;5659;49.408;11.116;2024-02-26T04:07:29;28.57;;;15.60;;
11203;SDS011;5659;49.408;11.116;2024-02-26T04:09:55;29.63;;;16.63;;
11203;SDS011;5659;49.408;11.116;2024-02-26T04:12:20;37.03;;;15.30;;
11203;SDS011;5659;49.408;11.116;2024-02-26T04:14:46;28.67;;;14.90;;
11203;SDS011;5659;49.408;11.116;2024-02-26T04:17:12;30.47;;;15.60;;
11203;SDS011;5659;49.408;11.116;2024-02-26T04:19:37;28.80;;;15.33;;
11203;SDS011;5659;49.408;11.116;2024-02-26T04:22:03;26.90;;;14.33;;
11203;SDS011;5659;49.408;11.116;2024-02-26T04:24:28;27.90;;;15.40;;
11203;SDS011;5659;49.408;11.116;2024-02-26T04:26:54;25.20;;;14.10;;
11203;SDS011;5659;49.408;11.116;2024-02-26T04:29:19;25.13;;;14.30;;
11203;SDS011;5659;49.408;11.116;2024-02-26T04:31:45;24.20;;;14.23;;
11203;SDS011;5659;49.408;11.116;2024-02-26T04:34:11;27.07;;;14.50;;
11203;SDS011;5659;49.408;11.116;2024-02-26T04:36:37;25.47;;;14.67;;
11203;SDS011;5659;49.408;11.116;2024-02-26T04:39:02;23.77;;;13.73;;
11203;SDS011;5659;49.408;11.116;2024-02-26T04:41:28;28.87;;;15.03;;
11203;SDS011;5659;49.408;11.116;2024-02-26T04:43:54;31.30;;;17.77;;
11203;SDS011;5659;49.408;11.116;2024-02-26T04:46:19;28.77;;;16.03;;
11203;SDS011;5659;49.408;11.116;2024-02-26T04:48:46;25.53;;;15.30;;
11203;SDS011;5659;49.408;11.116;2024-02-26T04:51:12;24.30;;;15.10;;
11203;SDS011;5659;49.408;11.116;2024-02-26T04:53:38;25.37;;;14.50;;
11203;SDS011;5659;49.408;11.116;2024-02-26T04:56:04;35.37;;;15.90;;
11203;SDS011;5659;49.408;11.116;2024-02-26T04:58:29;27.37;;;15.57;;
11203;SDS011;5659;49.408;11.116;2024-02-26T05:00:55;25.70;;;15.33;;
11203;SDS011;5659;49.408;11.116;2024-02-26T05:03:21;28.10;;;14.53;;
11203;SDS011;5659;49.408;11.116;2024-02-26T05:05:46;28.30;;;15.47;;
11203;SDS011;5659;49.408;11.116;2024-02-26T05:08:12;25.13;;;14.20;;
11203;SDS011;5659;49.408;11.116;2024-02-26T05:10:37;27.67;;;14.33;;
11203;SDS011;5659;49.408;11.116;2024-02-26T05:13:05;26.73;;;14.63;;
11203;SDS011;5659;49.408;11.116;2024-02-26T05:15:30;27.23;;;13.97;;
11203;SDS011;5659;49.408;11.116;2024-02-26T05:17:57;25.83;;;14.27;;
11203;SDS011;5659;49.408;11.116;2024-02-26T05:20:22;25.47;;;14.00;;
11203;SDS011;5659;49.408;11.116;2024-02-26T05:22:49;22.27;;;14.00;;
11203;SDS011;5659;49.408;11.116;2024-02-26T05:25:15;26.47;;;13.83;;
11203;SDS011;5659;49.408;11.116;2024-02-26T05:27:41;25.13;;;13.13;;
11203;SDS011;5659;49.408;11.116;2024-02-26T05:30:07;22.33;;;13.60;;
11203;SDS011;5659;49.408;11.116;2024-02-26T05:32:33;24.67;;;12.80;;
11203;SDS011;5659;49.408;11.116;2024-02-26T05:34:59;19.87;;;12.13;;
11203;SDS011;5659;49.408;11.116;2024-02-26T05:37:24;20.17;;;11.90;;
11203;SDS011;5659;49.408;11.116;2024-02-26T05:39:50;23.90;;;11.50;;
11203;SDS011;5659;49.408;11.116;2024-02-26T05:42:15;20.40;;;12.23;;
11203;SDS011;5659;49.408;11.116;2024-02-26T05:44:41;26.73;;;11.53;;
11203;SDS011;5659;49.408;11.116;2024-02-26T05:47:06;22.20;;;11.77;;
11203;SDS011;5659;49.408;11.116;2024-02-26T05:49:32;20.13;;;12.47;;
11203;SDS011;5659;49.408;11.116;2024-02-26T05:51:58;17.83;;;11.30;;
11203;SDS011;5659;49.408;11.116;2024-02-26T05:54:24;20.97;;;11.40;;
11203;SDS011;5659;49.408;11.116;2024-02-26T05:56:49;22.07;;;11.13;;
11203;SDS011;5659;49.408;11.116;2024-02-26T05:59:15;17.67;;;11.03;;
11203;SDS011;5659;49.408;11.116;2024-02-26T06:01:41;15.33;;;10.57;;
11203;SDS011;5659;49.408;11.116;2024-02-26T06:04:06;21.47;;;11.43;;
11203;SDS011;5659;49.408;11.116;2024-02-26T06:06:32;19.37;;;12.43;;
11203;SDS011;5659;49.408;11.116;2024-02-26T06:08:57;19.20;;;12.20;;
11203;SDS011;5659;49.408;11.116;2024-02-26T06:11:23;21.57;;;12.47;;
11203;SDS011;5659;49.408;11.116;2024-02-26T06:13:49;22.80;;;12.77;;
11203;SDS011;5659;49.408;11.116;2024-02-26T06:16:14;24.83;;;12.47;;
11203;SDS011;5659;49.408;11.116;2024-02-26T06:18:40;19.93;;;11.30;;
11203;SDS011;5659;49.408;11.116;2024-02-26T06:21:08;19.07;;;11.93;;
11203;SDS011;5659;49.408;11.116;2024-02-26T06:23:35;18.63;;;11.10;;
11203;SDS011;5659;49.408;11.116;2024-02-26T06:26:01;18.03;;;11.03;;
11203;SDS011;5659;49.408;11.116;2024-02-26T06:28:26;22.20;;;12.37;;
11203;SDS011;5659;49.408;11.116;2024-02-26T06:30:55;21.20;;;11.47;;
11203;SDS011;5659;49.408;11.116;2024-02-26T06:33:21;21.23;;;11.43;;
11203;SDS011;5659;49.408;11.116;2024-02-26T06:35:46;20.00;;;11.20;;
11203;SDS011;5659;49.408;11.116;2024-02-26T06:38:12;23.63;;;11.67;;
11203;SDS011;5659;49.408;11.116;2024-02-26T06:40:38;19.30;;;10.87;;
11203;SDS011;5659;49.408;11.116;2024-02-26T06:43:04;18.57;;;10.80;;
11203;SDS011;5659;49.408;11.116;2024-02-26T06:45:31;16.70;;;10.23;;
11203;SDS011;5659;49.408;11.116;2024-02-26T06:47:56;17.57;;;9.23;;
11203;SDS011;5659;49.408;11.116;2024-02-26T06:50:22;19.20;;;9.70;;
11203;SDS011;5659;49.408;11.116;2024-02-26T06:52:47;14.03;;;8.87;;
11203;SDS011;5659;49.408;11.116;2024-02-26T06:55:13;15.93;;;8.37;;
11203;SDS011;5659;49.408;11.116;2024-02-26T06:57:39;15.77;;;9.33;;
11203;SDS011;5659;49.408;11.116;2024-02-26T07:00:04;33.53;;;10.33;;
11203;SDS011;5659;49.408;11.116;2024-02-26T07:02:30;36.77;;;10.50;;
11203;SDS011;5659;49.408;11.116;2024-02-26T07:04:56;44.27;;;11.80;;
11203;SDS011;5659;49.408;11.116;2024-02-26T07:07:23;44.80;;;10.93;;
11203;SDS011;5659;49.408;11.116;2024-02-26T07:09:49;40.50;;;11.20;;
11203;SDS011;5659;49.408;11.116;2024-02-26T07:12:15;36.53;;;10.60;;
11203;SDS011;5659;49.408;11.116;2024-02-26T07:14:41;32.60;;;9.57;;
11203;SDS011;5659;49.408;11.116;2024-02-26T07:17:07;21.27;;;7.57;;
11203;SDS011;5659;49.408;11.116;2024-02-26T07:19:33;10.67;;;6.50;;
11203;SDS011;5659;49.408;11.116;2024-02-26T07:21:59;11.30;;;5.40;;
11203;SDS011;5659;49.408;11.116;2024-02-26T07:24:26;8.23;;;4.80;;
11203;SDS011;5659;49.408;11.116;2024-02-26T07:26:52;11.00;;;5.53;;
11203;SDS011;5659;49.408;11.116;2024-02-26T07:29:19;27.10;;;6.10;;
11203;SDS011;5659;49.408;11.116;2024-02-26T07:31:45;19.20;;;7.03;;
11203;SDS011;5659;49.408;11.116;2024-02-26T07:34:11;21.70;;;6.50;;
11203;SDS011;5659;49.408;11.116;2024-02-26T07:36:37;10.73;;;5.30;;
11203;SDS011;5659;49.408;11.116;2024-02-26T07:39:02;10.83;;;5.50;;
11203;SDS011;5659;49.408;11.116;2024-02-26T07:41:28;9.23;;;4.80;;
11203;SDS011;5659;49.408;11.116;2024-02-26T07:43:53;8.90;;;5.03;;
11203;SDS011;5659;49.408;11.116;2024-02-26T07:46:19;11.80;;;4.63;;
11203;SDS011;5659;49.408;11.116;2024-02-26T07:48:44;8.27;;;4.03;;
11203;SDS011;5659;49.408;11.116;2024-02-26T07:51:12;7.33;;;4.30;;
11203;SDS011;5659;49.408;11.116;2024-02-26T07:53:39;6.93;;;4.20;;
11203;SDS011;5659;49.408;11.116;2024-02-26T07:56:04;7.90;;;3.53;;
11203;SDS011;5659;49.408;11.116;2024-02-26T07:58:31;4.90;;;3.47;;
11203;SDS011;5659;49.408;11.116;2024-02-26T08:00:58;6.75;;;3.83;;
11203;SDS011;5659;49.408;11.116;2024-02-26T08:03:23;6.25;;;3.90;;
11203;SDS011;5659;49.408;11.116;2024-02-26T08:05:50;4.82;;;3.65;;
11203;SDS011;5659;49.408;11.116;2024-02-26T08:08:16;4.93;;;3.60;;
11203;SDS011;5659;49.408;11.116;2024-02-26T08:10:42;6.63;;;3.75;;
11203;SDS011;5659;49.408;11.116;2024-02-26T08:13:08;4.72;;;3.47;;
11203;SDS011;5659;49.408;11.116;2024-02-26T08:15:34;6.60;;;3.50;;
11203;SDS011;5659;49.408;11.116;2024-02-26T08:18:02;5.65;;;3.75;;
11203;SDS011;5659;49.408;11.116;2024-02-26T08:20:28;4.13;;;3.10;;
11203;SDS011;5659;49.408;11.116;2024-02-26T08:22:55;6.37;;;3.50;;
11203;SDS011;5659;49.408;11.116;2024-02-26T08:25:21;6.23;;;3.50;;
11203;SDS011;5659;49.408;11.116;2024-02-26T08:27:47;4.13;;;3.60;;
11203;SDS011;5659;49.408;11.116;2024-02-26T08:30:13;5.55;;;3.63;;
11203;SDS011;5659;49.408;11.116;2024-02-26T08:32:41;6.18;;;3.50;;
11203;SDS011;5659;49.408;11.116;2024-02-26T08:35:08;7.10;;;3.53;;
11203;SDS011;5659;49.408;11.116;2024-02-26T08:37:33;5.70;;;3.70;;
11203;SDS011;5659;49.408;11.116;2024-02-26T08:39:59;6.40;;;4.05;;
11203;SDS011;5659;49.408;11.116;2024-02-26T08:42:24;5.35;;;3.85;;
11203;SDS011;5659;49.408;11.116;2024-02-26T08:44:50;5.57;;;3.88;;
11203;SDS011;5659;49.408;11.116;2024-02-26T08:47:15;7.30;;;4.38;;
11203;SDS011;5659;49.408;11.116;2024-02-26T08:49:44;6.20;;;4.13;;
11203;SDS011;5659;49.408;11.116;2024-02-26T08:52:10;7.82;;;4.22;;
11203;SDS011;5659;49.408;11.116;2024-02-26T08:54:36;4.78;;;3.65;;
11203;SDS011;5659;49.408;11.116;2024-02-26T08:57:01;5.60;;;3.85;;
11203;SDS011;5659;49.408;11.116;2024-02-26T08:59:27;6.18;;;4.00;;
11203;SDS011;5659;49.408;11.116;2024-02-26T09:01:53;6.22;;;3.60;;
11203;SDS011;5659;49.408;11.116;2024-02-26T09:04:19;4.93;;;3.88;;
11203;SDS011;5659;49.408;11.116;2024-02-26T09:06:44;5.35;;;3.70;;
11203;SDS011;5659;49.408;11.116;2024-02-26T09:09:10;5.72;;;3.72;;
11203;SDS011;5659;49.408;11.116;2024-02-26T09:11:36;5.13;;;3.67;;
11203;SDS011;5659;49.408;11.116;2024-02-26T09:14:01;4.88;;;3.78;;
11203;SDS011;5659;49.408;11.116;2024-02-26T09:16:28;5.40;;;3.30;;
11203;SDS011;5659;49.408;11.116;2024-02-26T09:18:54;11.57;;;3.42;;
11203;SDS011;5659;49.408;11.116;2024-02-26T09:21:20;6.00;;;3.70;;
11203;SDS011;5659;49.408;11.116;2024-02-26T09:23:49;6.80;;;3.15;;
11203;SDS011;5659;49.408;11.116;2024-02-26T09:26:15;3.67;;;3.20;;
11203;SDS011;5659;49.408;11.116;2024-02-26T09:28:41;6.13;;;2.97;;
11203;SDS011;5659;49.408;11.116;2024-02-26T09:31:07;4.82;;;3.63;;
11203;SDS011;5659;49.408;11.116;2024-02-26T09:33:33;5.47;;;3.22;;
11203;SDS011;5659;49.408;11.116;2024-02-26T09:35:58;5.47;;;3.15;;
11203;SDS011;5659;49.408;11.116;2024-02-26T09:38:25;5.43;;;3.50;;
11203;SDS011;5659;49.408;11.116;2024-02-26T09:40:51;6.05;;;3.30;;
11203;SDS011;5659;49.408;11.116;2024-02-26T09:43:17;4.05;;;3.28;;
11203;SDS011;5659;49.408;11.116;2024-02-26T09:45:47;7.28;;;2.83;;
11203;SDS011;5659;49.408;11.116;2024-02-26T09:48:15;4.55;;;3.40;;
11203;SDS011;5659;49.408;11.116;2024-02-26T09:50:42;3.42;;;3.03;;
11203;SDS011;5659;49.408;11.116;2024-02-26T09:53:09;3.50;;;2.97;;
11203;SDS011;5659;49.408;11.116;2024-02-26T09:55:37;5.55;;;3.30;;
11203;SDS011;5659;49.408;11.116;2024-02-26T09:58:03;4.72;;;3.20;;
11203;SDS011;5659;49.408;11.116;2024-02-26T10:00:31;4.32;;;3.03;;
11203;SDS011;5659;49.408;11.116;2024-02-26T10:03:03;4.25;;;3.00;;
11203;SDS011;5659;49.408;11.116;2024-02-26T10:05:34;5.57;;;3.13;;
11203;SDS011;5659;49.408;11.116;2024-02-26T10:08:02;5.82;;;3.33;;
11203;SDS011;5659;49.408;11.116;2024-02-26T10:10:29;4.65;;;3.10;;
11203;SDS011;5659;49.408;11.116;2024-02-26T10:12:58;3.50;;;2.92;;
11203;SDS011;5659;49.408;11.116;2024-02-26T10:15:24;4.10;;;2.92;;
11203;SDS011;5659;49.408;11.116;2024-02-26T10:17:50;4.25;;;3.38;;
11203;SDS011;5659;49.408;11.116;2024-02-26T10:20:16;4.15;;;3.03;;
11203;SDS011;5659;49.408;11.116;2024-02-26T10:22:43;3.80;;;3.20;;
11203;SDS011;5659;49.408;11.116;2024-02-26T10:25:10;4.97;;;3.30;;
11203;SDS011;5659;49.408;11.116;2024-02-26T10:27:35;4.57;;;3.03;;
11203;SDS011;5659;49.408;11.116;2024-02-26T10:30:04;6.63;;;3.13;;
11203;SDS011;5659;49.408;11.116;2024-02-26T10:32:42;4.03;;;3.33;;
11203;SDS011;5659;49.408;11.116;2024-02-26T10:35:09;3.97;;;2.72;;
11203;SDS011;5659;49.408;11.116;2024-02-26T10:37:35;4.50;;;3.35;;
11203;SDS011;5659;49.408;11.116;2024-02-26T10:40:01;5.78;;;3.35;;
11203;SDS011;5659;49.408;11.116;2024-02-26T10:42:27;2.95;;;2.65;;
11203;SDS011;5659;49.408;11.116;2024-02-26T10:44:52;5.38;;;3.08;;
11203;SDS011;5659;49.408;11.116;2024-02-26T10:47:18;4.03;;;2.85;;
11203;SDS011;5659;49.408;11.116;2024-02-26T10:49:46;4.88;;;3.15;;
11203;SDS011;5659;49.408;11.116;2024-02-26T10:52:15;4.75;;;3.00;;
11203;SDS011;5659;49.408;11.116;2024-02-26T10:54:43;7.45;;;3.08;;
11203;SDS011;5659;49.408;11.116;2024-02-26T10:57:12;4.18;;;2.65;;
11203;SDS011;5659;49.408;11.116;2024-02-26T10:59:40;3.70;;;2.40;;
11203;SDS011;5659;49.408;11.116;2024-02-26T11:02:07;5.22;;;2.50;;
11203;SDS011;5659;49.408;11.116;2024-02-26T11:04:34;4.05;;;2.70;;
11203;SDS011;5659;49.408;11.116;2024-02-26T11:07:02;4.38;;;2.75;;
11203;SDS011;5659;49.408;11.116;2024-02-26T11:09:29;4.28;;;2.60;;
11203;SDS011;5659;49.408;11.116;2024-02-26T11:11:55;4.80;;;2.50;;
11203;SDS011;5659;49.408;11.116;2024-02-26T11:14:22;6.38;;;3.00;;
11203;SDS011;5659;49.408;11.116;2024-02-26T11:16:50;2.47;;;2.17;;
11203;SDS011;5659;49.408;11.116;2024-02-26T11:19:16;4.78;;;2.75;;
11203;SDS011;5659;49.408;11.116;2024-02-26T11:21:43;4.90;;;2.55;;
11203;SDS011;5659;49.408;11.116;2024-02-26T11:24:11;3.13;;;2.20;;
11203;SDS011;5659;49.408;11.116;2024-02-26T11:26:42;5.60;;;2.47;;
11203;SDS011;5659;49.408;11.116;2024-02-26T11:29:13;3.38;;;2.40;;
11203;SDS011;5659;49.408;11.116;2024-02-26T11:31:42;4.43;;;2.20;;
11203;SDS011;5659;49.408;11.116;2024-02-26T11:34:08;4.93;;;2.40;;
11203;SDS011;5659;49.408;11.116;2024-02-26T11:36:34;2.88;;;2.35;;
11203;SDS011;5659;49.408;11.116;2024-02-26T11:39:01;2.95;;;2.17;;
11203;SDS011;5659;49.408;11.116;2024-02-26T11:41:28;4.43;;;2.40;;
11203;SDS011;5659;49.408;11.116;2024-02-26T11:43:58;2.58;;;2.15;;
11203;SDS011;5659;49.408;11.116;2024-02-26T11:46:30;4.72;;;2.40;;
11203;SDS011;5659;49.408;11.116;2024-02-26T11:51:52;3.28;;;2.40;;
11203;SDS011;5659;49.408;11.116;2024-02-26T11:59:55;3.72;;;2.40;;
11203;SDS011;5659;49.408;11.116;2024-02-26T12:05:20;2.30;;;1.83;;
11203;SDS011;5659;49.408;11.116;2024-02-26T12:07:55;10.70;;;2.03;;
11203;SDS011;5659;49.408;11.116;2024-02-26T12:10:26;2.50;;;2.10;;
11203;SDS011;5659;49.408;11.116;2024-02-26T12:13:15;2.97;;;2.00;;
11203;SDS011;5659;49.408;11.116;2024-02-26T12:15:42;2.13;;;1.80;;
11203;SDS011;5659;49.408;11.116;2024-02-26T12:18:12;1.88;;;1.73;;
11203;SDS011;5659;49.408;11.116;2024-02-26T12:20:42;2.60;;;1.90;;
11203;SDS011;5659;49.408;11.116;2024-02-26T12:23:09;3.58;;;2.45;;
11203;SDS011;5659;49.408;11.116;2024-02-26T12:25:39;3.95;;;1.85;;
11203;SDS011;5659;49.408;11.116;2024-02-26T12:28:05;2.90;;;2.20;;
11203;SDS011;5659;49.408;11.116;2024-02-26T12:30:32;1.95;;;1.70;;
11203;SDS011;5659;49.408;11.116;2024-02-26T12:32:58;3.90;;;2.10;;
11203;SDS011;5659;49.408;11.116;2024-02-26T12:35:25;2.17;;;1.95;;
11203;SDS011;5659;49.408;11.116;2024-02-26T12:37:56;3.72;;;1.88;;
11203;SDS011;5659;49.408;11.116;2024-02-26T12:40:23;2.03;;;1.85;;
11203;SDS011;5659;49.408;11.116;2024-02-26T12:42:48;2.35;;;1.60;;
11203;SDS011;5659;49.408;11.116;2024-02-26T12:45:14;2.88;;;1.92;;
11203;SDS011;5659;49.408;11.116;2024-02-26T12:47:41;3.67;;;1.90;;
11203;SDS011;5659;49.408;11.116;2024-02-26T12:50:08;2.03;;;1.80;;
11203;SDS011;5659;49.408;11.116;2024-02-26T12:52:35;2.03;;;1.60;;
11203;SDS011;5659;49.408;11.116;2024-02-26T12:55:04;2.03;;;1.83;;
11203;SDS011;5659;49.408;11.116;2024-02-26T12:57:34;3.15;;;1.52;;
11203;SDS011;5659;49.408;11.116;2024-02-26T13:00:07;1.98;;;1.70;;
11203;SDS011;5659;49.408;11.116;2024-02-26T13:02:35;1.70;;;1.60;;
11203;SDS011;5659;49.408;11.116;2024-02-26T13:05:03;2.30;;;1.80;;
11203;SDS011;5659;49.408;11.116;2024-02-26T13:07:30;1.70;;;1.60;;
11203;SDS011;5659;49.408;11.116;2024-02-26T13:09:56;2.50;;;1.55;;
11203;SDS011;5659;49.408;11.116;2024-02-26T13:12:22;2.53;;;1.40;;
11203;SDS011;5659;49.408;11.116;2024-02-26T13:14:57;1.98;;;1.75;;
11203;SDS011;5659;49.408;11.116;2024-02-26T13:17:24;1.98;;;1.55;;
11203;SDS011;5659;49.408;11.116;2024-02-26T13:19:52;2.95;;;1.83;;
11203;SDS011;5659;49.408;11.116;2024-02-26T13:22:20;1.55;;;1.40;;
11203;SDS011;5659;49.408;11.116;2024-02-26T13:24:53;2.25;;;1.52;;
11203;SDS011;5659;49.408;11.116;2024-02-26T13:27:23;1.95;;;1.42;;
11203;SDS011;5659;49.408;11.116;2024-02-26T13:30:01;1.70;;;1.60;;
11203;SDS011;5659;49.408;11.116;2024-02-26T13:32:27;2.13;;;1.80;;
11203;SDS011;5659;49.408;11.116;2024-02-26T13:35:03;1.98;;;1.77;;
11203;SDS011;5659;49.408;11.116;2024-02-26T13:37:31;2.30;;;1.65;;
11203;SDS011;5659;49.408;11.116;2024-02-26T13:39:56;4.63;;;1.60;;
11203;SDS011;5659;49.408;11.116;2024-02-26T13:42:22;3.25;;;1.55;;
11203;SDS011;5659;49.408;11.116;2024-02-26T13:44:47;1.90;;;1.48;;
11203;SDS011;5659;49.408;11.116;2024-02-26T13:47:13;2.08;;;1.75;;
11203;SDS011;5659;49.408;11.116;2024-02-26T13:49:39;1.88;;;1.50;;
11203;SDS011;5659;49.408;11.116;2024-02-26T13:52:05;1.90;;;1.70;;
11203;SDS011;5659;49.408;11.116;2024-02-26T13:54:31;2.67;;;1.60;;
11203;SDS011;5659;49.408;11.116;2024-02-26T13:56:56;1.70;;;1.60;;
11203;SDS011;5659;49.408;11.116;2024-02-26T13:59:22;2.72;;;1.75;;
11203;SDS011;5659;49.408;11.116;2024-02-26T14:01:47;2.85;;;1.85;;
11203;SDS011;5659;49.408;11.116;2024-02-26T14:04:13;3.13;;;1.80;;
11203;SDS011;5659;49.408;11.116;2024-02-26T14:06:39;2.45;;;1.90;;
11203;SDS011;5659;49.408;11.116;2024-02-26T14:09:04;2.17;;;1.75;;
11203;SDS011;5659;49.408;11.116;2024-02-26T14:11:30;2.80;;;1.85;;
11203;SDS011;5659;49.408;11.116;2024-02-26T14:13:56;2.53;;;2.00;;
11203;SDS011;5659;49.408;11.116;2024-02-26T14:16:22;2.05;;;1.77;;
11203;SDS011;5659;49.408;11.116;2024-02-26T14:18:47;2.95;;;1.73;;
11203;SDS011;5659;49.408;11.116;2024-02-26T14:21:13;2.85;;;1.90;;
11203;SDS011;5659;49.408;11.116;2024-02-26T14:23:38;2.53;;;1.75;;
11203;SDS011;5659;49.408;11.116;2024-02-26T14:26:04;4.32;;;2.17;;
11203;SDS011;5659;49.408;11.116;2024-02-26T14:28:30;2.15;;;1.60;;
11203;SDS011;5659;49.408;11.116;2024-02-26T14:30:56;2.05;;;1.80;;
11203;SDS011;5659;49.408;11.116;2024-02-26T14:33:22;2.50;;;1.77;;
11203;SDS011;5659;49.408;11.116;2024-02-26T14:35:48;2.22;;;1.90;;
11203;SDS011;5659;49.408;11.116;2024-02-26T14:38:13;2.78;;;2.00;;
11203;SDS011;5659;49.408;11.116;2024-02-26T14:40:39;2.33;;;1.85;;
11203;SDS011;5659;49.408;11.116;2024-02-26T14:43:04;3.92;;;2.20;;